• Join FlightAware (Why Join?)
  • Login
  • US Flag 
07:55PM EDT


 

Airport Tracker/Info


-or-


 

Live Flight TrackerFlight Track Log ✈ UAL4274 ✈ 25-Apr-2013 ✈ KIAH - KRSW

Flight Track Log - Related Links

Times and Time Zones

All times are in EDT time to prevent confusion due to time zone crossing. See the UAL4274 flight status page for this flight to view local times or setup timezone preferences in your user account.

Time Position Orientation Groundspeed Altitude Reporting Facility
EDT Latitude Longitude Course Direction KTS MPH feet Rate Location/Type
02:06PM 29.9639 -95.3433 97° East 161 185 500  Level Houston Center
02:06PM 29.9486 -95.3161 123° Southeast 173 199 1,700 1,260 Climbing Houston Center
02:07PM 29.9411 -95.2875 107° East 186 214 2,000 1,920 Climbing Houston Center
02:07PM 29.9314 -95.2411 104° East 255 293 3,700 2,400 Climbing Houston Center
02:08PM 29.9236 -95.2114 107° East 229 264 4,500 2,220 Climbing Houston Center
02:08PM 29.9122 -95.1711 108° East 259 298 5,800 2,400 Climbing Houston Center
02:09PM 29.9110 -94.7988 95° East  Level FlightAware Approximate
02:09PM 29.9081 -95.1292 97° East 260 299 7,000  Level Houston Center
02:09PM 29.9061 -95.0828 93° East 278 320 8,500 2,820 Climbing Houston Center
02:10PM 29.8997 -94.6641 97° East  Level FlightAware Approximate
02:10PM 29.9025 -95.0197 94° East 282 325 10,000  Level Houston Center
02:11PM 29.8849 -94.5299 97° East  Level FlightAware Approximate
02:11PM 29.8969 -94.9217 94° East 302 348 11,800  Level Houston Center
02:12PM 29.8906 -94.8125 94° East 335 386 13,300 1,260 Climbing Houston Center
02:13PM 29.8842 -94.6936 94° East 365 420 14,500 1,440 Climbing Houston Center
02:14PM 29.8769 -94.5689 94° East 386 444 16,300 1,500 Climbing Houston Center
02:15PM 29.8703 -94.4456 94° East 387 445 17,600 1,440 Climbing Houston Center
02:16PM 29.8614 -94.2944 94° East 394 453 19,300 1,440 Climbing Houston Center
02:17PM 29.8578 -94.1683 92° East 395 455 20,600 1,380 Climbing Houston Center
02:18PM 29.8550 -94.0297 91° East 403 464 22,200 1,620 Climbing Houston Center
02:19PM 29.8683 -93.9028 83° East 403 464 24,000 1,620 Climbing Houston Center
02:20PM 29.8817 -93.7756 83° East 403 464 25,600 1,500 Climbing Houston Center
02:21PM 29.8958 -93.6475 83° East 405 466 27,200 1,440 Climbing Houston Center
02:22PM 29.9078 -93.5217 84° East 402 463 28,600 1,500 Climbing Houston Center
02:23PM 29.9236 -93.3700 83° East 401 461 30,300 1,260 Climbing Houston Center
02:24PM 29.9364 -93.2400 83° East 411 473 31,300 1,080 Climbing Houston Center
02:25PM 29.9492 -93.1111 83° East 409 471 32,600 1,200 Climbing Houston Center
02:26PM 29.9625 -92.9814 83° East 409 471 33,900 1,020 Climbing Houston Center
02:27PM 29.9747 -92.8525 84° East 408 470 34,800 480 Climbing Houston Center
02:28PM 29.9869 -92.6931 85° East 415 478 35,000 60 Climbing Houston Center
02:29PM 29.9986 -92.5481 85° East 445 512 35,000  Level Houston Center
02:31PM 30.0106 -92.3975 85° East 469 540 35,000  Level Houston Center
02:32PM 30.0239 -92.2392 84° East 494 568 35,000  Level Houston Center
02:33PM 30.0350 -92.0775 85° East 506 582 35,000  Level Houston Center
02:34PM 30.0514 -91.8794 84° East 517 595 35,000  Level Houston Center
02:35PM 30.0642 -91.7150 85° East 515 593 35,000  Level Houston Center
02:36PM 30.0756 -91.5522 85° East 513 590 35,000  Level Houston Center
02:37PM 30.0869 -91.3894 85° East 511 588 35,000  Level Houston Center
02:38PM 30.0983 -91.2250 85° East 513 590 35,000  Level Houston Center
02:39PM 30.1106 -91.0636 85° East 509 586 35,000  Level Houston Center
02:40PM 30.1344 -90.8711 82° East 506 582 35,000  Level Houston Center
02:41PM 30.1706 -90.7128 75° East 509 586 35,000  Level Houston Center
02:42PM 30.2039 -90.5528 76° East 511 588 35,000  Level Houston Center
02:43PM 30.2386 -90.3919 76° East 516 594 35,000  Level Houston Center
02:44PM 30.2717 -90.2308 77° East 517 595 35,000  Level Houston Center
02:45PM 30.3047 -90.0703 77° East 516 594 35,000  Level Houston Center
02:46PM 30.3381 -89.9106 76° East 512 589 35,000  Level Houston Center
02:47PM 30.3739 -89.7353 77° East 517 595 35,000  Level Houston Center
02:48PM 30.4150 -89.5367 76° East 522 601 35,000 -60 Level Houston Center
02:49PM 30.4478 -89.3733 77° East 521 600 34,900  Descending Houston Center
02:50PM 30.4800 -89.2089 77° East 523 602 35,000  Climbing Houston Center
02:51PM 30.5106 -89.0453 78° East 521 600 35,000  Level Houston Center
02:52PM 30.5417 -88.8856 77° East 521 600 35,000  Level Houston Center
02:53PM 30.5817 -88.6908 77° East 519 597 35,000  Level Houston Center
02:54PM 30.6131 -88.5256 78° East 526 605 35,000  Level Houston Center
02:55PM 30.6456 -88.3625 77° East 526 605 35,000  Level Houston Center
02:56PM 30.6761 -88.1981 78° East 527 606 35,000  Level Houston Center
02:57PM 30.7111 -88.0236 77° East 528 608 35,000  Level Houston Center
02:58PM 30.7433 -87.8567 77° East 529 609 35,000  Level Houston Center
02:59PM 30.7611 -87.7344 80° East 539 620 35,000  Level Jacksonville Center
03:00PM 30.7736 -87.5683 85° East 527 606 35,000 120 Level Jacksonville Center
03:01PM 30.7861 -87.3972 85° East 527 606 35,300 600 Climbing Jacksonville Center
03:02PM 30.7939 -87.2283 87° East 520 598 36,200 840 Climbing Jacksonville Center
03:03PM 30.8056 -87.0669 85° East 509 586 37,000 360 Climbing Jacksonville Center
03:04PM 30.8150 -86.9028 86° East 509 586 37,000  Level Jacksonville Center
03:05PM 30.8244 -86.7339 86° East 509 586 37,000  Level Jacksonville Center
03:06PM 30.8253 -86.5622 90° East 515 593 37,000  Level Jacksonville Center
03:07PM 30.8178 -86.3903 93° East 521 600 37,000  Level Jacksonville Center
03:08PM 30.8139 -86.2208 91° East 526 605 37,000  Level Jacksonville Center
03:09PM 30.7867 -86.0578 101° East 526 605 37,000  Level Jacksonville Center
03:10PM 30.7194 -85.9083 118° Southeast 505 581 37,000  Level Jacksonville Center
03:11PM 30.6561 -85.7564 116° Southeast 512 589 37,000  Level Jacksonville Center
03:12PM 30.5903 -85.6097 118° Southeast 518 596 37,000  Level Jacksonville Center
03:13PM 30.5225 -85.4583 117° Southeast 518 596 37,000  Level Jacksonville Center
03:14PM 30.4506 -85.2925 117° Southeast 523 602 37,000 -180 Level Jacksonville Center
03:15PM 30.3825 -85.1417 118° Southeast 523 602 36,700 -420 Descending Jacksonville Center
03:16PM 30.3139 -84.9883 117° Southeast 523 602 36,200 -540 Descending Jacksonville Center
03:17PM 30.2475 -84.8356 117° Southeast 523 602 35,700 -540 Descending Jacksonville Center
03:18PM 30.1767 -84.6828 118° Southeast 528 608 35,200 -360 Descending Jacksonville Center
03:19PM 30.1078 -84.5278 117° Southeast 533 613 35,000 -120 Descending Jacksonville Center
03:20PM 30.0386 -84.3753 118° Southeast 533 613 35,000  Level Jacksonville Center
03:21PM 29.9694 -84.2208 117° Southeast 533 613 35,000  Level Jacksonville Center
03:22PM 29.9000 -84.0667 117° Southeast 539 620 35,000  Level Jacksonville Center
03:23PM 29.8239 -83.9172 120° Southeast 539 620 35,000 -60 Level Jacksonville Center
03:24PM 29.7078 -83.8203 144° Southeast 512 589 34,900  Descending Jacksonville Center
03:25PM 29.5811 -83.7403 151° Southeast 511 588 35,000  Climbing Jacksonville Center
03:26PM 29.4542 -83.6631 152° Southeast 516 594 35,000  Level Jacksonville Center
03:27PM 29.3272 -83.5811 151° Southeast 516 594 35,000  Level Jacksonville Center
03:28PM 29.2128 -83.5064 150° Southeast 522 601 35,000  Level Jacksonville Center
03:29PM 29.0881 -83.4272 151° Southeast 517 595 35,000  Level Jacksonville Center
03:30PM 28.9650 -83.3506 151° Southeast 517 595 35,000 -540 Level Jacksonville Center
03:31PM 28.8317 -83.2956 160° South 512 589 34,000 -1,500 Descending Jacksonville Center
03:32PM 28.7003 -83.2453 161° South 507 583 32,000 -2,040 Descending Jacksonville Center
03:33PM 28.5669 -83.1975 163° South 507 583 30,000 -1,980 Descending Jacksonville Center
03:34PM 28.4356 -83.1500 162° South 496 571 28,100 -1,920 Descending Jacksonville Center
03:35PM 28.3597 -83.1261 165° South 488 562 27,000 -720 Descending Miami Center
03:36PM 28.2328 -83.0767 161° South 488 562 27,000  Level Miami Center
03:37PM 28.1033 -83.0294 162° South 488 562 27,000  Level Miami Center
03:38PM 27.9783 -82.9758 159° South 488 562 27,000 -60 Level Miami Center
03:39PM 27.8536 -82.9219 159° South 488 562 26,900 -1,200 Descending Miami Center
03:40PM 27.7186 -82.8561 157° South 482 555 24,700 -2,100 Descending Miami Center
03:41PM 27.5978 -82.8031 159° South 475 547 22,800 -1,920 Descending Miami Center
03:42PM 27.4831 -82.7503 158° South 458 527 20,900 -1,920 Descending Miami Center
03:43PM 27.3806 -82.7053 159° South 444 511 19,000 -1,800 Descending Miami Center
03:44PM 27.2658 -82.6528 158° South 438 504 17,400 -1,860 Descending Miami Center
03:46PM 27.0753 -82.5081 146° Southeast 424 488 13,500 -1,980 Descending Miami Center
03:47PM 26.9842 -82.4386 146° Southeast 412 474 11,500 -1,800 Descending Miami Center
03:48PM 26.9033 -82.3717 144° Southeast 388 447 10,000 -1,260 Descending Miami Center
03:49PM 26.8344 -82.3128 143° Southeast 347 399 9,000 -1,200 Descending Miami Center
03:50PM 26.7694 -82.2656 147° Southeast 308 354 7,700 -1,560 Descending Miami Center
03:51PM 26.7025 -82.2114 144° Southeast 294 338 5,900 -1,380 Descending Miami Center
03:52PM 26.6417 -82.1644 145° Southeast 288 331 5,000 -480 Descending Miami Center
03:53PM 26.5808 -82.1175 145° Southeast 277 319 5,000 -300 Level Miami Center
03:54PM 26.5197 -82.0706 145° Southeast 272 313 4,400 -1,020 Descending Miami Center
03:55PM 26.4611 -82.0217 143° Southeast 272 313 3,000 -1,440 Descending Miami Center